Time;durP1;ratioP1;P1;durP2;ratioP2;P2;SDS_P1;SDS_P2;PMS_P1;PMS_P2;Temp;Humidity;BMP_temperature;BMP_pressure;BME280_temperature;BME280_humidity;BME280_pressure;Samples;Min_cycle;Max_cycle;Signal;HPM_P1;HPM_P2
2022/03/18 00:02:09;;;;;;;24.60;6.45;;;;;;;;;;6241678;23;20125;-84
2022/03/18 00:04:35;;;;;;;20.45;5.40;;;;;;;;;;6239297;23;20102;-84
2022/03/18 00:07:01;;;;;;;17.52;5.45;;;;;;;;;;6238745;23;20090;-84
2022/03/18 00:09:28;;;;;;;13.90;5.68;;;;;;;;;;6161818;23;20615;-85
2022/03/18 00:11:54;;;;;;;26.02;5.95;;;;;;;;;;6210389;23;20058;-83
2022/03/18 00:14:21;;;;;;;17.48;6.47;;;;;;;;;;6242515;23;20144;-84
2022/03/18 00:16:47;;;;;;;23.17;6.43;;;;;;;;;;6241632;23;20074;-83
2022/03/18 00:19:19;;;;;;;21.20;5.75;;;;;;;;;;6210567;23;20027;-86
2022/03/18 00:22:01;;;;;;;24.73;6.25;;;;;;;;;;6237775;23;20662;-85
2022/03/18 00:24:27;;;;;;;23.60;6.32;;;;;;;;;;6208656;23;20084;-86
2022/03/18 00:26:53;;;;;;;20.45;5.50;;;;;;;;;;6237555;23;20066;-86
2022/03/18 00:29:19;;;;;;;19.45;6.65;;;;;;;;;;6184578;23;20048;-85
2022/03/18 00:31:46;;;;;;;22.17;6.80;;;;;;;;;;6237321;23;20020;-85
2022/03/18 00:34:12;;;;;;;17.98;6.28;;;;;;;;;;6236616;23;20476;-83
2022/03/18 00:36:38;;;;;;;22.10;6.50;;;;;;;;;;6209895;23;20035;-85
2022/03/18 00:39:05;;;;;;;21.20;7.07;;;;;;;;;;6237704;23;20016;-84
2022/03/18 00:41:32;;;;;;;20.50;6.78;;;;;;;;;;6237317;23;20024;-84
2022/03/18 00:43:58;;;;;;;18.23;6.50;;;;;;;;;;6235856;23;20016;-84
2022/03/18 00:46:24;;;;;;;21.15;6.55;;;;;;;;;;6209110;23;20020;-85
2022/03/18 00:54:21;;;;;;;18.88;6.15;;;;;;;;;;6209989;23;20067;-85
2022/03/18 00:56:47;;;;;;;20.80;6.40;;;;;;;;;;6208760;23;20086;-86
2022/03/18 00:59:16;;;;;;;23.33;6.63;;;;;;;;;;6241601;23;20020;-84
2022/03/18 01:01:52;;;;;;;21.58;6.43;;;;;;;;;;6243122;23;20027;-84
2022/03/18 01:04:19;;;;;;;19.45;6.55;;;;;;;;;;6246134;23;20027;-85
2022/03/18 01:06:45;;;;;;;19.00;6.50;;;;;;;;;;6236855;23;20150;-84
2022/03/18 01:09:11;;;;;;;16.95;6.35;;;;;;;;;;6237493;23;20024;-85
2022/03/18 01:11:38;;;;;;;19.08;5.95;;;;;;;;;;6212205;23;20050;-84
2022/03/18 01:14:04;;;;;;;18.17;6.32;;;;;;;;;;6236413;23;20024;-85
2022/03/18 01:16:31;;;;;;;14.77;5.93;;;;;;;;;;6210548;23;20381;-85
2022/03/18 01:18:57;;;;;;;17.00;6.50;;;;;;;;;;6236699;23;20452;-84
2022/03/18 01:21:23;;;;;;;18.67;6.45;;;;;;;;;;6236896;23;20487;-83
2022/03/18 01:23:49;;;;;;;20.65;7.18;;;;;;;;;;6159708;23;20016;-84
2022/03/18 01:26:15;;;;;;;16.35;6.45;;;;;;;;;;6235550;23;20541;-84
2022/03/18 01:28:41;;;;;;;21.10;6.00;;;;;;;;;;6210693;23;20044;-85
2022/03/18 01:31:07;;;;;;;21.67;7.63;;;;;;;;;;6236157;23;20460;-84
2022/03/18 01:33:35;;;;;;;24.73;8.07;;;;;;;;;;6235698;23;20582;-85
2022/03/18 01:36:02;;;;;;;22.08;7.13;;;;;;;;;;6236595;23;20432;-85
2022/03/18 01:38:28;;;;;;;23.73;7.38;;;;;;;;;;6209911;23;20560;-86
2022/03/18 01:40:55;;;;;;;26.92;7.78;;;;;;;;;;6183799;23;20027;-84
2022/03/18 01:43:21;;;;;;;23.58;7.90;;;;;;;;;;6209183;23;20028;-84
2022/03/18 01:45:49;;;;;;;18.80;7.68;;;;;;;;;;6210017;23;20070;-84
2022/03/18 01:48:15;;;;;;;18.40;7.20;;;;;;;;;;6237003;23;20096;-84
2022/03/18 01:50:41;;;;;;;22.60;8.27;;;;;;;;;;6235719;23;20070;-83
2022/03/18 01:53:08;;;;;;;20.67;8.18;;;;;;;;;;6236202;23;20016;-85
2022/03/18 01:55:34;;;;;;;18.52;8.30;;;;;;;;;;6236886;23;20016;-84
2022/03/18 01:58:00;;;;;;;21.17;8.73;;;;;;;;;;6235823;23;20134;-84
2022/03/18 02:00:27;;;;;;;22.45;8.90;;;;;;;;;;6235582;23;20432;-85
2022/03/18 02:02:57;;;;;;;21.90;8.95;;;;;;;;;;6235304;23;20352;-85
2022/03/18 02:05:24;;;;;;;15.95;7.47;;;;;;;;;;6210716;23;20523;-86
2022/03/18 02:07:50;;;;;;;22.45;8.18;;;;;;;;;;6240392;23;20016;-84
2022/03/18 02:10:16;;;;;;;25.48;8.35;;;;;;;;;;6236071;23;20019;-84
2022/03/18 02:12:43;;;;;;;20.23;8.70;;;;;;;;;;6235340;23;20453;-84
2022/03/18 02:15:12;;;;;;;24.42;8.38;;;;;;;;;;6208516;23;20024;-84
2022/03/18 02:17:38;;;;;;;20.38;8.52;;;;;;;;;;6209224;23;20738;-84
2022/03/18 02:20:05;;;;;;;18.75;8.82;;;;;;;;;;6234058;23;20024;-85
2022/03/18 02:22:40;;;;;;;30.52;10.25;;;;;;;;;;6235852;23;20078;-84
2022/03/18 02:25:12;;;;;;;30.65;9.13;;;;;;;;;;6236675;23;20016;-84
2022/03/18 02:27:38;;;;;;;20.98;10.15;;;;;;;;;;6213627;23;20020;-84
2022/03/18 02:30:08;;;;;;;23.33;9.10;;;;;;;;;;6246100;23;20076;-84
2022/03/18 02:32:37;;;;;;;25.90;9.75;;;;;;;;;;6246704;23;20490;-84
2022/03/18 02:35:03;;;;;;;20.13;9.25;;;;;;;;;;6215947;23;20020;-84
2022/03/18 02:37:29;;;;;;;25.42;9.63;;;;;;;;;;6236771;23;20391;-85
2022/03/18 02:39:56;;;;;;;32.95;11.02;;;;;;;;;;6236223;23;20058;-86
2022/03/18 02:42:22;;;;;;;25.45;10.40;;;;;;;;;;6235716;23;20950;-83
2022/03/18 02:44:49;;;;;;;27.27;10.80;;;;;;;;;;6235792;23;20399;-84
2022/03/18 02:47:15;;;;;;;20.05;10.38;;;;;;;;;;6235985;23;20020;-88
2022/03/18 02:49:41;;;;;;;22.75;10.43;;;;;;;;;;6235862;23;20554;-87
2022/03/18 02:52:07;;;;;;;22.92;9.88;;;;;;;;;;6236468;23;20095;-88
2022/03/18 02:54:35;;;;;;;24.77;9.70;;;;;;;;;;6211267;23;20020;-87
2022/03/18 02:57:01;;;;;;;26.15;10.15;;;;;;;;;;6247758;23;20121;-85
2022/03/18 02:59:27;;;;;;;23.60;9.48;;;;;;;;;;6247253;23;20054;-84
2022/03/18 03:01:53;;;;;;;23.40;9.55;;;;;;;;;;6236690;23;20044;-84
2022/03/18 03:04:19;;;;;;;30.42;10.25;;;;;;;;;;6237917;23;20059;-89
2022/03/18 03:09:31;;;;;;;27.90;10.10;;;;;;;;;;6239354;23;20361;-83
2022/03/18 03:11:57;;;;;;;24.50;9.45;;;;;;;;;;6245150;23;21007;-84
2022/03/18 03:14:23;;;;;;;24.88;10.10;;;;;;;;;;6248313;23;20016;-85
2022/03/18 03:16:49;;;;;;;25.30;9.82;;;;;;;;;;6246024;23;20042;-84
2022/03/18 03:19:16;;;;;;;25.88;9.80;;;;;;;;;;6242885;23;20586;-84
2022/03/18 03:21:42;;;;;;;20.13;8.85;;;;;;;;;;6241830;23;20082;-84
2022/03/18 03:24:08;;;;;;;25.30;10.32;;;;;;;;;;6215184;23;20090;-84
2022/03/18 03:26:35;;;;;;;22.33;10.30;;;;;;;;;;6241667;23;20031;-84
2022/03/18 03:29:01;;;;;;;21.95;9.68;;;;;;;;;;6215853;23;20027;-84
2022/03/18 03:31:27;;;;;;;25.85;9.00;;;;;;;;;;6241633;23;20020;-84
2022/03/18 03:33:53;;;;;;;18.08;8.25;;;;;;;;;;6237996;23;20041;-84
2022/03/18 03:36:19;;;;;;;22.08;8.57;;;;;;;;;;6235447;23;20059;-84
2022/03/18 03:38:45;;;;;;;15.38;8.00;;;;;;;;;;6236624;23;20023;-83
2022/03/18 03:41:12;;;;;;;15.75;7.80;;;;;;;;;;6235748;23;20090;-83
2022/03/18 03:43:44;;;;;;;17.50;7.78;;;;;;;;;;6184374;23;20020;-85
2022/03/18 03:46:10;;;;;;;17.33;7.38;;;;;;;;;;6208461;23;20059;-85
2022/03/18 03:48:37;;;;;;;18.90;7.63;;;;;;;;;;6184094;23;20016;-88
2022/03/18 03:51:03;;;;;;;15.88;7.60;;;;;;;;;;6187109;23;20055;-83
2022/03/18 03:53:29;;;;;;;19.85;8.27;;;;;;;;;;6238538;23;20460;-84
2022/03/18 03:55:55;;;;;;;17.08;7.65;;;;;;;;;;6194292;23;20020;-83
2022/03/18 03:58:21;;;;;;;16.70;7.60;;;;;;;;;;6208694;23;20452;-90
2022/03/18 04:00:47;;;;;;;17.65;7.07;;;;;;;;;;6236429;23;20016;-83
2022/03/18 04:03:14;;;;;;;13.00;7.20;;;;;;;;;;6235542;23;20063;-86
2022/03/18 04:05:40;;;;;;;18.35;7.70;;;;;;;;;;6234564;23;20016;-84
2022/03/18 04:08:06;;;;;;;17.92;7.90;;;;;;;;;;6210394;23;20103;-85
2022/03/18 04:10:32;;;;;;;17.92;7.60;;;;;;;;;;6183779;23;20105;-84
2022/03/18 04:12:59;;;;;;;16.15;7.88;;;;;;;;;;6237142;23;20025;-84
2022/03/18 04:15:26;;;;;;;15.02;7.80;;;;;;;;;;6233958;23;20024;-83
2022/03/18 04:17:52;;;;;;;14.77;7.25;;;;;;;;;;6161684;23;20626;-84
2022/03/18 04:20:21;;;;;;;18.45;8.00;;;;;;;;;;6236890;23;20122;-84
2022/03/18 04:22:48;;;;;;;16.80;6.90;;;;;;;;;;6236132;23;20779;-85
2022/03/18 04:25:14;;;;;;;18.73;8.05;;;;;;;;;;6207043;23;20464;-84
2022/03/18 04:27:41;;;;;;;14.63;7.63;;;;;;;;;;6235391;23;20095;-84
2022/03/18 04:30:09;;;;;;;20.17;7.43;;;;;;;;;;6237019;23;20020;-87
2022/03/18 04:32:35;;;;;;;14.90;8.32;;;;;;;;;;6237207;23;20341;-83
2022/03/18 04:35:01;;;;;;;16.80;7.63;;;;;;;;;;6237024;23;20670;-84
2022/03/18 04:37:27;;;;;;;17.48;9.10;;;;;;;;;;6237319;23;20333;-84
2022/03/18 04:39:53;;;;;;;20.00;9.13;;;;;;;;;;6212839;23;20023;-86
2022/03/18 04:42:19;;;;;;;14.13;8.07;;;;;;;;;;6236777;23;20803;-85
2022/03/18 04:44:45;;;;;;;17.88;8.85;;;;;;;;;;6210152;23;20479;-84
2022/03/18 04:47:12;;;;;;;21.67;9.13;;;;;;;;;;6236327;23;21371;-85
2022/03/18 04:49:45;;;;;;;16.17;8.85;;;;;;;;;;6236674;23;20035;-85
2022/03/18 04:52:12;;;;;;;19.40;9.63;;;;;;;;;;6236849;23;20020;-88
2022/03/18 04:54:38;;;;;;;16.80;9.27;;;;;;;;;;6236931;23;20024;-87
2022/03/18 04:57:18;;;;;;;21.30;9.38;;;;;;;;;;6237026;23;20016;-84
2022/03/18 04:59:46;;;;;;;21.45;10.80;;;;;;;;;;6207973;23;20034;-84
2022/03/18 05:02:12;;;;;;;21.00;10.68;;;;;;;;;;6240445;23;20030;-83
2022/03/18 05:04:38;;;;;;;18.88;10.00;;;;;;;;;;6235112;23;20024;-84
2022/03/18 05:07:05;;;;;;;17.95;10.30;;;;;;;;;;6234849;23;20090;-89
2022/03/18 05:09:32;;;;;;;23.33;10.45;;;;;;;;;;6235200;23;20497;-88
2022/03/18 05:11:58;;;;;;;23.50;11.15;;;;;;;;;;6234296;23;20486;-90
2022/03/18 05:14:24;;;;;;;18.50;10.52;;;;;;;;;;6232887;23;20020;-89
2022/03/18 05:16:50;;;;;;;14.63;11.45;;;;;;;;;;6235142;23;20460;-89
2022/03/18 05:19:16;;;;;;;22.02;10.48;;;;;;;;;;6209500;23;20111;-88
2022/03/18 05:21:42;;;;;;;20.90;10.77;;;;;;;;;;6234893;23;20077;-88
2022/03/18 05:24:09;;;;;;;20.45;10.40;;;;;;;;;;6235267;23;20062;-89
2022/03/18 05:26:40;;;;;;;25.27;12.00;;;;;;;;;;6234055;23;20087;-88
2022/03/18 05:29:06;;;;;;;18.30;10.52;;;;;;;;;;6234137;23;20028;-88
2022/03/18 05:31:32;;;;;;;21.95;11.30;;;;;;;;;;6234150;23;20028;-87
2022/03/18 05:33:58;;;;;;;20.27;11.07;;;;;;;;;;6232994;23;20460;-88
2022/03/18 05:36:24;;;;;;;20.80;11.23;;;;;;;;;;6229999;23;20012;-85
2022/03/18 05:38:50;;;;;;;21.60;12.05;;;;;;;;;;6232882;23;20163;-87
2022/03/18 05:41:17;;;;;;;20.35;11.85;;;;;;;;;;6235044;23;20017;-90
2022/03/18 05:43:43;;;;;;;28.80;12.82;;;;;;;;;;6207283;23;20052;-88
2022/03/18 05:46:11;;;;;;;21.08;12.70;;;;;;;;;;6234360;23;20044;-87
2022/03/18 05:48:37;;;;;;;23.63;12.75;;;;;;;;;;6236856;23;20016;-87
2022/03/18 05:51:03;;;;;;;21.95;13.02;;;;;;;;;;6236231;23;20086;-87
2022/03/18 05:53:30;;;;;;;20.92;13.02;;;;;;;;;;6233358;23;20052;-84
2022/03/18 05:58:43;;;;;;;29.48;13.48;;;;;;;;;;6235402;23;20073;-85
2022/03/18 06:01:10;;;;;;;25.67;13.77;;;;;;;;;;6208899;23;20027;-88
2022/03/18 06:03:36;;;;;;;20.83;13.02;;;;;;;;;;6210272;23;20020;-85
2022/03/18 06:06:04;;;;;;;25.17;13.68;;;;;;;;;;6241338;23;20482;-86
2022/03/18 06:13:59;;;;;;;24.35;13.93;;;;;;;;;;6252993;23;20079;-84
2022/03/18 06:16:26;;;;;;;28.63;14.95;;;;;;;;;;6239452;23;20016;-84
2022/03/18 06:18:52;;;;;;;25.52;14.90;;;;;;;;;;6236172;23;20030;-89
2022/03/18 06:21:21;;;;;;;25.38;13.95;;;;;;;;;;6240624;23;20023;-92
2022/03/18 06:23:47;;;;;;;20.83;12.55;;;;;;;;;;6237312;23;20074;-82
2022/03/18 06:26:13;;;;;;;19.42;12.48;;;;;;;;;;6238942;23;20012;-87
2022/03/18 06:28:39;;;;;;;17.08;11.98;;;;;;;;;;6257024;23;20031;-86
2022/03/18 06:33:53;;;;;;;19.88;11.80;;;;;;;;;;6215868;23;20031;-84
2022/03/18 06:36:19;;;;;;;18.55;12.38;;;;;;;;;;6241705;23;20016;-83
2022/03/18 06:38:45;;;;;;;19.05;13.07;;;;;;;;;;6212732;23;20020;-84
2022/03/18 06:41:11;;;;;;;26.23;12.63;;;;;;;;;;6209856;23;20022;-84
2022/03/18 06:43:37;;;;;;;22.80;14.30;;;;;;;;;;6238458;23;20113;-83
2022/03/18 06:46:04;;;;;;;26.58;15.30;;;;;;;;;;6237563;23;20016;-84
2022/03/18 06:48:30;;;;;;;23.15;15.55;;;;;;;;;;6237556;23;20016;-84
2022/03/18 06:50:56;;;;;;;22.45;15.93;;;;;;;;;;6236422;23;20044;-83
2022/03/18 06:53:22;;;;;;;24.20;15.70;;;;;;;;;;6237425;23;20444;-84
2022/03/18 06:55:55;;;;;;;23.98;16.52;;;;;;;;;;6246140;23;20054;-87
2022/03/18 06:58:21;;;;;;;30.83;16.30;;;;;;;;;;6244300;22;20019;-86
2022/03/18 07:00:48;;;;;;;28.80;17.05;;;;;;;;;;6217821;23;20024;-87
2022/03/18 07:03:14;;;;;;;32.55;17.80;;;;;;;;;;6254401;22;20035;-86
2022/03/18 07:05:40;;;;;;;25.77;17.77;;;;;;;;;;6241506;23;20091;-89
2022/03/18 07:08:06;;;;;;;25.45;17.23;;;;;;;;;;6212878;23;20024;-86
2022/03/18 07:10:34;;;;;;;25.63;16.83;;;;;;;;;;6189540;23;20489;-86
2022/03/18 07:13:00;;;;;;;33.00;18.05;;;;;;;;;;6238398;23;20529;-87
2022/03/18 07:15:26;;;;;;;25.02;16.50;;;;;;;;;;6240847;23;20155;-86
2022/03/18 07:24:45;;;;;;;30.17;16.83;;;;;;;;;;6234071;23;20255;-85
2022/03/18 07:27:11;;;;;;;28.73;17.38;;;;;;;;;;6235354;23;20020;-85
2022/03/18 07:29:37;;;;;;;33.25;18.23;;;;;;;;;;6233947;23;20027;-86
2022/03/18 07:34:39;;;;;;;30.70;18.23;;;;;;;;;;6221451;23;20348;-86
2022/03/18 07:37:05;;;;;;;29.95;18.55;;;;;;;;;;6159791;23;20088;-85
2022/03/18 07:39:31;;;;;;;29.15;18.13;;;;;;;;;;6237979;23;20031;-85
2022/03/18 07:41:57;;;;;;;29.55;18.10;;;;;;;;;;6233885;23;20047;-85
2022/03/18 07:44:23;;;;;;;28.13;18.38;;;;;;;;;;6237623;23;20079;-85
2022/03/18 07:46:52;;;;;;;38.38;20.27;;;;;;;;;;6156519;23;20016;-86
2022/03/18 07:49:18;;;;;;;29.27;18.55;;;;;;;;;;6209849;23;20024;-86
2022/03/18 07:51:52;;;;;;;30.73;19.77;;;;;;;;;;6158561;23;20020;-86
2022/03/18 07:54:24;;;;;;;31.17;19.67;;;;;;;;;;6210632;23;20024;-86
2022/03/18 07:56:51;;;;;;;26.73;18.15;;;;;;;;;;6233297;23;20023;-86
2022/03/18 07:59:17;;;;;;;29.92;19.38;;;;;;;;;;6210934;23;20027;-85
2022/03/18 08:02:01;;;;;;;34.42;20.33;;;;;;;;;;6235402;23;20023;-86
2022/03/18 08:04:30;;;;;;;37.10;20.33;;;;;;;;;;6234954;23;20016;-86
2022/03/18 08:10:47;;;;;;;37.95;20.60;;;;;;;;;;6236125;23;20016;-86
2022/03/18 08:13:13;;;;;;;40.72;21.33;;;;;;;;;;6240874;23;20052;-85
2022/03/18 08:15:40;;;;;;;39.30;21.88;;;;;;;;;;6237350;23;20016;-86
2022/03/18 08:18:09;;;;;;;42.55;21.35;;;;;;;;;;6237098;23;20027;-86
2022/03/18 08:20:40;;;;;;;36.92;20.75;;;;;;;;;;6238089;23;20352;-86
2022/03/18 08:23:07;;;;;;;42.50;20.38;;;;;;;;;;6236450;23;20017;-88
2022/03/18 08:25:36;;;;;;;35.40;20.83;;;;;;;;;;6236609;23;20476;-89
2022/03/18 08:34:56;;;;;;;44.75;21.67;;;;;;;;;;6231265;23;20891;-88
2022/03/18 08:40:13;;;;;;;38.03;20.85;;;;;;;;;;6210915;23;20442;-88
2022/03/18 08:42:39;;;;;;;36.65;19.83;;;;;;;;;;6237183;23;20322;-88
2022/03/18 08:45:17;;;;;;;51.10;20.23;;;;;;;;;;6210730;23;20098;-89
2022/03/18 08:51:05;;;;;;;34.20;18.60;;;;;;;;;;6241451;23;20055;-87
2022/03/18 08:53:31;;;;;;;33.72;18.25;;;;;;;;;;6186073;23;20024;-87
2022/03/18 09:17:04;;;;;;;;;;;;;;;;;;6166229;23;20048;-88
2022/03/18 09:19:30;;;;;;;36.55;14.23;;;;;;;;;;6139636;23;19908;-87
2022/03/18 09:22:06;;;;;;;32.92;14.18;;;;;;;;;;6097773;23;20100;-87
2022/03/18 09:27:37;;;;;;;32.77;14.77;;;;;;;;;;6184397;22;20483;-87
2022/03/18 09:30:03;;;;;;;43.47;15.40;;;;;;;;;;6204427;23;20334;-88
2022/03/18 09:39:14;;;;;;;35.97;17.17;;;;;;;;;;6239161;23;20035;-86
2022/03/18 09:41:41;;;;;;;25.52;14.75;;;;;;;;;;6211129;23;20027;-86
2022/03/18 09:44:13;;;;;;;39.97;16.13;;;;;;;;;;6256858;22;20020;-86
2022/03/18 09:49:19;;;;;;;34.53;13.05;;;;;;;;;;6237189;22;20090;-87
2022/03/18 09:51:46;;;;;;;38.65;12.60;;;;;;;;;;6234748;23;20196;-87
2022/03/18 09:54:34;;;;;;;32.83;13.57;;;;;;;;;;6237324;23;20452;-87
2022/03/18 09:57:13;;;;;;;30.90;11.43;;;;;;;;;;6209396;23;20107;-87
2022/03/18 10:00:00;;;;;;;36.60;10.75;;;;;;;;;;6172313;23;20029;-86
2022/03/18 10:02:30;;;;;;;23.80;8.25;;;;;;;;;;6186800;23;20432;-86
2022/03/18 10:04:56;;;;;;;23.38;7.15;;;;;;;;;;6148728;23;20095;-86
2022/03/18 10:07:22;;;;;;;26.45;7.18;;;;;;;;;;6175189;23;20092;-86
2022/03/18 10:12:57;;;;;;;28.48;5.28;;;;;;;;;;6175953;22;20043;-85
2022/03/18 10:15:26;;;;;;;25.90;5.57;;;;;;;;;;6267730;22;20020;-86
2022/03/18 10:18:14;;;;;;;24.15;4.85;;;;;;;;;;6242131;22;20015;-86
2022/03/18 10:23:48;;;;;;;35.97;5.35;;;;;;;;;;6275861;22;20134;-85
2022/03/18 10:26:15;;;;;;;23.08;5.13;;;;;;;;;;6243671;23;20020;-85
2022/03/18 10:28:43;;;;;;;21.15;5.45;;;;;;;;;;6244210;22;20024;-86
2022/03/18 10:31:15;;;;;;;25.42;5.57;;;;;;;;;;6241427;22;20015;-85
2022/03/18 10:37:04;;;;;;;30.60;5.20;;;;;;;;;;6270016;22;20119;-84
2022/03/18 10:39:31;;;;;;;26.55;5.47;;;;;;;;;;6241649;22;20099;-85
2022/03/18 10:44:23;;;;;;;33.75;5.53;;;;;;;;;;6261641;22;20035;-87
2022/03/18 10:46:50;;;;;;;24.50;5.72;;;;;;;;;;6241175;22;20076;-86
2022/03/18 10:49:17;;;;;;;21.83;4.45;;;;;;;;;;6217231;22;20024;-86
2022/03/18 10:54:23;;;;;;;20.15;3.90;;;;;;;;;;6267920;22;20411;-89
2022/03/18 10:56:57;;;;;;;23.38;4.70;;;;;;;;;;6216146;22;20023;-87
2022/03/18 10:59:24;;;;;;;24.15;5.18;;;;;;;;;;6269215;22;20027;-87
2022/03/18 11:01:51;;;;;;;25.90;4.43;;;;;;;;;;6242001;22;20026;-87
2022/03/18 11:04:18;;;;;;;27.90;5.18;;;;;;;;;;6240525;22;20051;-87
2022/03/18 11:07:29;;;;;;;18.27;3.90;;;;;;;;;;6216007;22;20030;-87
2022/03/18 11:11:07;;;;;;;31.65;5.88;;;;;;;;;;6239462;22;20020;-88
2022/03/18 11:12:23;;;;;;;38.08;8.30;;;;;;;;;;6240396;22;20020;-88
2022/03/18 11:15:02;;;;;;;30.30;7.45;;;;;;;;;;6193865;22;20016;-88
2022/03/18 11:20:45;;;;;;;35.30;9.18;;;;;;;;;;6149321;23;20131;-88
2022/03/18 11:23:16;;;;;;;34.42;9.15;;;;;;;;;;6123411;23;20094;-87
2022/03/18 11:25:43;;;;;;;28.35;8.30;;;;;;;;;;6224661;22;20070;-88
2022/03/18 11:28:17;;;;;;;28.65;7.10;;;;;;;;;;6218413;22;20192;-86
2022/03/18 11:30:44;;;;;;;26.77;7.03;;;;;;;;;;6271512;22;20020;-87
2022/03/18 11:33:10;;;;;;;32.67;9.10;;;;;;;;;;6192952;22;20012;-87
2022/03/18 11:35:48;;;;;;;32.00;8.65;;;;;;;;;;6272238;22;20052;-88
2022/03/18 11:38:43;;;;;;;25.63;7.18;;;;;;;;;;6242966;22;20024;-88
2022/03/18 11:41:09;;;;;;;30.90;9.95;;;;;;;;;;6272878;22;20016;-87
2022/03/18 11:43:51;;;;;;;28.60;7.65;;;;;;;;;;6243115;22;20085;-87
2022/03/18 11:51:59;;;;;;;26.65;6.78;;;13.60;99.90;;;;;;6187932;23;20159;-87
2022/03/18 12:00:33;;;;;;;26.52;6.20;;;;;;;;;;6275362;22;20019;-87
2022/03/18 12:03:04;;;;;;;28.13;4.78;;;;;;;;;;6252473;22;20028;-87
2022/03/18 12:09:14;;;;;;;25.77;5.82;;;;;;;;;;6244744;22;20073;-87
2022/03/18 12:11:40;;;;;;;18.50;5.43;;;;;;;;;;6240874;22;20031;-88
2022/03/18 12:14:08;;;;;;;24.27;6.57;;;;;;;;;;6272480;22;20411;-87
2022/03/18 12:16:35;;;;;;;21.00;5.10;;;;;;;;;;6219620;22;20018;-88
2022/03/18 12:19:09;;;;;;;22.55;4.60;;;;;;;;;;6193955;22;20405;-87
2022/03/18 12:24:41;;;;;;;24.60;5.10;;;;;;;;;;6212467;23;20036;-88
2022/03/18 12:27:07;;;;;;;;;;;12.90;99.90;;;;;;6155190;23;20103;-87
2022/03/18 12:29:33;;;;;;;21.90;5.65;;;;;;;;;;6183165;23;19915;-87
2022/03/18 12:32:27;;;;;;;25.90;5.47;;;;;;;;;;6132929;23;20098;-88
2022/03/18 12:35:18;;;;;;;24.73;5.50;;;;;;;;;;6161573;23;20023;-88
2022/03/18 12:37:46;;;;;;;26.73;5.18;;;;;;;;;;6213658;23;20016;-87
2022/03/18 12:40:34;;;;;;;21.10;4.07;;;;;;;;;;6214357;23;20403;-87
2022/03/18 12:46:10;;;;;;;25.50;4.63;;;;;;;;;;6166126;23;20024;-88
2022/03/18 12:48:51;;;;;;;21.50;4.75;;;;;;;;;;6221543;23;20344;-87
2022/03/18 12:51:17;;;;;;;22.60;5.13;;;;;;;;;;6245465;23;20614;-87
2022/03/18 12:54:09;;;;;;;24.42;4.35;;;13.20;99.90;;;;;;6244926;23;20012;-87
2022/03/18 12:57:02;;;;;;;26.77;5.35;;;;;;;;;;6216803;23;20062;-89
2022/03/18 12:59:28;;;;;;;17.70;3.95;;;;;;;;;;6186844;23;20031;-89
2022/03/18 13:08:21;;;;;;;19.45;4.47;;;;;;;;;;6226204;23;20035;-87
2022/03/18 13:10:54;;;;;;;25.83;4.82;;;;;;;;;;6225963;22;20094;-88
2022/03/18 13:13:21;;;;;;;28.02;5.05;;;;;;;;;;6223470;22;20054;-88
2022/03/18 13:15:57;;;;;;;21.77;3.97;;;;;;;;;;6196418;22;20019;-86
2022/03/18 13:38:07;;;;;;;21.10;4.07;;;;;;;;;;6225590;22;20059;-87
2022/03/18 14:01:19;;;;;;;31.48;5.10;;;;;;;;;;6246954;22;20016;-82
2022/03/18 14:04:00;;;;;;;24.77;3.97;;;;;;;;;;6246593;22;20023;-83
2022/03/18 14:06:26;;;;;;;25.90;4.00;;;;;;;;;;6275317;22;20024;-84
2022/03/18 14:09:23;;;;;;;15.95;3.15;;;;;;;;;;6275719;22;20070;-83
2022/03/18 14:14:36;;;;;;;23.77;3.85;;;;;;;;;;6271725;22;20094;-82
2022/03/18 14:17:24;;;;;;;20.85;3.80;;;;;;;;;;6221094;22;20048;-82
2022/03/18 14:20:13;;;;;;;24.23;4.63;;;;;;;;;;6255165;22;20016;-82
2022/03/18 14:22:41;;;;;;;25.50;4.28;;;;;;;;;;6287611;22;20022;-82
2022/03/18 14:25:09;;;;;;;22.88;4.60;;;;;;;;;;6286549;22;20086;-82
2022/03/18 14:33:35;;;;;;;24.50;3.95;;;;;;;;;;6271868;22;20028;-82
2022/03/18 14:36:04;;;;;;;22.55;4.32;;;;;;;;;;6271730;22;20011;-82
2022/03/18 14:38:30;;;;;;;23.65;4.40;;;;;;;;;;6241589;22;20075;-83
2022/03/18 14:41:00;;;;;;;29.50;5.43;;;;;;;;;;6272817;22;20051;-82
2022/03/18 14:43:26;;;;;;;26.90;4.47;;;;;;;;;;6241795;22;20050;-82
2022/03/18 14:45:53;;;;;;;27.77;5.03;;;;;;;;;;6219113;22;20019;-82
2022/03/18 14:48:19;;;;;;;24.35;4.40;;;;;;;;;;6241917;22;20041;-82
2022/03/18 14:50:48;;;;;;;25.50;5.75;;;;;;;;;;6269742;22;20016;-85
2022/03/18 14:53:18;;;;;;;27.77;4.65;;;;;;;;;;6248188;22;20027;-82
2022/03/18 14:58:40;;;;;;;24.23;4.55;;;;;;;;;;6274855;22;20027;-85
2022/03/18 15:01:06;;;;;;;23.10;4.75;;;;;;;;;;6268495;22;20019;-82
2022/03/18 15:03:36;;;;;;;24.40;4.15;;;;;;;;;;6245137;22;20043;-82
2022/03/18 15:08:51;;;;;;;33.08;6.53;;;;;;;;;;6255671;22;20377;-86
2022/03/18 15:11:23;;;;;;;26.17;5.25;;;;;;;;;;6270561;22;20016;-84
2022/03/18 15:13:49;;;;;;;23.27;4.93;;;;;;;;;;6217052;22;20115;-85
2022/03/18 15:16:21;;;;;;;27.77;4.53;;;;;;;;;;6241665;22;20028;-85
2022/03/18 15:18:50;;;;;;;28.90;5.78;;;;;;;;;;6214944;22;20047;-87
2022/03/18 15:21:23;;;;;;;32.60;6.53;;;;;;;;;;6269236;22;20019;-82
2022/03/18 15:23:50;;;;;;;27.40;5.57;;;;;;;;;;6238503;22;20107;-82
2022/03/18 15:26:19;;;;;;;30.30;4.93;;;;;;;;;;6243473;22;20098;-86
2022/03/18 15:28:49;;;;;;;27.60;5.63;;;;;;;;;;6216631;22;20023;-85
2022/03/18 15:34:02;;;;;;;33.97;5.90;;;;;;;;;;6223539;22;20486;-82
2022/03/18 15:36:29;;;;;;;22.88;4.55;;;;;;;;;;6273573;22;20016;-81
2022/03/18 15:38:58;;;;;;;31.42;5.40;;;;;;;;;;6268433;22;20606;-87
2022/03/18 15:41:25;;;;;;;28.98;5.25;;;;;;;;;;6266659;22;20043;-83
2022/03/18 15:43:52;;;;;;;22.45;3.95;;;;;;;;;;6214601;22;20027;-85
2022/03/18 15:46:21;;;;;;;36.30;6.05;;;;;;;;;;6268048;22;20019;-85
2022/03/18 15:48:56;;;;;;;33.50;5.70;;;;;;;;;;6240404;22;20081;-85
2022/03/18 15:51:28;;;;;;;22.50;5.15;;;;;;;;;;6267549;22;20023;-84
2022/03/18 15:53:54;;;;;;;30.02;5.82;;;;;;;;;;6240041;22;20578;-84
2022/03/18 15:56:38;;;;;;;33.45;5.53;;;;;;;;;;6266657;22;20019;-84
2022/03/18 15:59:17;;;;;;;29.63;6.45;;;;;;;;;;6268826;22;20055;-86
2022/03/18 16:01:43;;;;;;;29.23;5.43;;;;;;;;;;6269341;22;20082;-82
2022/03/18 16:04:20;;;;;;;33.25;5.65;;;;;;;;;;6223320;22;20047;-85
2022/03/18 16:06:46;;;;;;;24.65;5.03;;;;;;;;;;6242217;22;20065;-83
2022/03/18 16:09:15;;;;;;;32.22;6.65;;;;;;;;;;6215945;22;20035;-84
2022/03/18 16:11:41;;;;;;;31.05;5.30;;;;;;;;;;6268978;22;20046;-86
2022/03/18 16:14:11;;;;;;;28.58;4.47;;;;;;;;;;6268548;22;20110;-85
2022/03/18 16:16:37;;;;;;;27.67;5.10;;;;;;;;;;6269478;22;20094;-83
2022/03/18 16:19:05;;;;;;;33.38;5.65;;;;;;;;;;6241490;22;20019;-83
2022/03/18 16:21:32;;;;;;;23.50;4.95;;;;;;;;;;6268811;22;20471;-85
2022/03/18 16:24:02;;;;;;;33.50;5.75;;;;;;;;;;6266825;22;20451;-85
2022/03/18 16:26:28;;;;;;;31.02;4.90;;;;;;;;;;6237869;22;20079;-83
2022/03/18 16:28:55;;;;;;;33.13;6.15;;;;;;;;;;6267571;22;20055;-85
2022/03/18 16:31:21;;;;;;;32.38;4.97;;;;;;;;;;6266473;22;20015;-86
2022/03/18 16:33:49;;;;;;;33.63;5.85;;;;;;;;;;6266752;22;20015;-82
2022/03/18 16:36:15;;;;;;;36.97;5.45;;;;;;;;;;6265459;22;20078;-83
2022/03/18 16:38:45;;;;;;;42.15;5.75;;;;;;;;;;6241326;22;20024;-82
2022/03/18 16:41:11;;;;;;;33.53;5.07;;;;;;;;;;6216850;22;20023;-84
2022/03/18 16:43:37;;;;;;;32.20;5.18;;;;;;;;;;6272663;22;20019;-83
2022/03/18 16:51:46;;;;;;;41.28;5.40;;;;;;;;;;6272332;22;20051;-83
2022/03/18 16:54:12;;;;;;;28.05;5.35;;;;;;;;;;6268294;22;20581;-87
2022/03/18 16:56:38;;;;;;;35.60;6.20;;;;;;;;;;6266608;22;20023;-83
2022/03/18 16:59:05;;;;;;;30.15;6.00;;;;;;;;;;6266588;22;20015;-84
2022/03/18 17:04:17;;;;;;;29.27;5.57;;;;;;;;;;6268279;22;20104;-84
2022/03/18 17:06:43;;;;;;;34.92;6.57;;;;;;;;;;6266589;22;20012;-85
2022/03/18 17:09:10;;;;;;;41.45;6.55;;;;;;;;;;6265571;22;20073;-86
2022/03/18 17:11:36;;;;;;;31.88;6.13;;;;;;;;;;6268270;22;20022;-83
2022/03/18 17:14:07;;;;;;;29.70;5.47;;;;;;;;;;6272163;22;20019;-83
2022/03/18 17:16:34;;;;;;;33.45;6.75;;;;;;;;;;6277585;22;20050;-87
2022/03/18 17:19:02;;;;;;;36.53;6.05;;;;;;;;;;6276326;22;20027;-82
2022/03/18 17:21:28;;;;;;;34.00;5.80;;;;;;;;;;6249993;22;20019;-85
2022/03/18 17:23:54;;;;;;;35.95;5.50;;;;;;;;;;6275241;22;20055;-84
2022/03/18 17:26:21;;;;;;;39.70;6.03;;;;;;;;;;6249369;22;20031;-84
2022/03/18 17:28:47;;;;;;;32.10;6.32;;;;;;;;;;6275060;22;20089;-83
2022/03/18 17:31:32;;;;;;;39.83;7.85;;;;;;;;;;6289565;22;20039;-84
2022/03/18 17:33:58;;;;;;;41.90;6.55;;;;;;;;;;6237000;22;20030;-81
2022/03/18 17:36:24;;;;;;;35.60;7.18;;;;;;;;;;6221389;22;20020;-84
2022/03/18 17:38:51;;;;;;;38.05;5.88;;;;;;;;;;6273158;22;20019;-83
2022/03/18 17:41:18;;;;;;;34.35;5.85;;;;;;;;;;6274623;22;20229;-86
2022/03/18 17:43:58;;;;;;;33.78;6.15;;;;;;;;;;6244587;22;20027;-85
2022/03/18 17:46:24;;;;;;;34.55;6.25;;;;;;;;;;6275199;22;20030;-85